sensor_id;sensor_type;location;lat;lon;timestamp;pressure;altitude;pressure_sealevel;temperature;humidity
71964;BME280;59834;52.124;5.422;2022-08-20T00:01:01;101616.47;;;19.37;89.57
71964;BME280;59834;52.124;5.422;2022-08-20T00:03:31;101610.19;;;19.38;89.08
71964;BME280;59834;52.124;5.422;2022-08-20T00:06:00;101613.66;;;19.38;89.62
71964;BME280;59834;52.124;5.422;2022-08-20T00:08:28;101607.78;;;19.35;89.34
71964;BME280;59834;52.124;5.422;2022-08-20T00:10:56;101605.56;;;19.30;89.95
71964;BME280;59834;52.124;5.422;2022-08-20T00:13:27;101609.31;;;19.27;89.90
71964;BME280;59834;52.124;5.422;2022-08-20T00:15:54;101603.06;;;19.28;89.73
71964;BME280;59834;52.124;5.422;2022-08-20T00:18:22;101610.31;;;19.26;89.58
71964;BME280;59834;52.124;5.422;2022-08-20T00:20:51;101608.63;;;19.25;89.92
71964;BME280;59834;52.124;5.422;2022-08-20T00:23:18;101597.31;;;19.23;90.19
71964;BME280;59834;52.124;5.422;2022-08-20T00:25:45;101605.16;;;19.25;90.37
71964;BME280;59834;52.124;5.422;2022-08-20T00:28:12;101597.19;;;19.25;89.95
71964;BME280;59834;52.124;5.422;2022-08-20T00:30:41;101605.25;;;19.23;90.05
71964;BME280;59834;52.124;5.422;2022-08-20T00:33:12;101606.38;;;19.21;90.56
71964;BME280;59834;52.124;5.422;2022-08-20T00:35:50;101600.38;;;19.19;90.38
71964;BME280;59834;52.124;5.422;2022-08-20T00:38:17;101605.69;;;19.19;90.49
71964;BME280;59834;52.124;5.422;2022-08-20T00:40:48;101607.19;;;19.21;90.73
71964;BME280;59834;52.124;5.422;2022-08-20T00:43:37;101608.91;;;19.22;90.72
71964;BME280;59834;52.124;5.422;2022-08-20T00:46:13;101609.72;;;19.23;90.69
71964;BME280;59834;52.124;5.422;2022-08-20T00:48:42;101610.56;;;19.23;90.79
71964;BME280;59834;52.124;5.422;2022-08-20T00:51:22;101610.16;;;19.18;90.62
71964;BME280;59834;52.124;5.422;2022-08-20T00:54:06;101621.72;;;19.17;90.57
71964;BME280;59834;52.124;5.422;2022-08-20T00:56:35;101614.47;;;19.19;90.29
71964;BME280;59834;52.124;5.422;2022-08-20T00:59:05;101623.13;;;19.21;90.51
71964;BME280;59834;52.124;5.422;2022-08-20T01:01:41;101615.16;;;19.21;90.73
71964;BME280;59834;52.124;5.422;2022-08-20T01:04:23;101610.84;;;19.20;90.95
71964;BME280;59834;52.124;5.422;2022-08-20T01:06:50;101606.50;;;19.19;90.57
71964;BME280;59834;52.124;5.422;2022-08-20T01:09:16;101595.34;;;19.16;91.11
71964;BME280;59834;52.124;5.422;2022-08-20T01:12:05;101597.84;;;19.17;90.42
71964;BME280;59834;52.124;5.422;2022-08-20T01:14:32;101599.09;;;19.13;90.97
71964;BME280;59834;52.124;5.422;2022-08-20T01:17:02;101600.19;;;19.11;90.87
71964;BME280;59834;52.124;5.422;2022-08-20T01:19:38;101605.63;;;19.09;91.70
71964;BME280;59834;52.124;5.422;2022-08-20T01:22:07;101599.88;;;19.04;91.52
71964;BME280;59834;52.124;5.422;2022-08-20T01:25:09;101602.69;;;19.02;91.37
71964;BME280;59834;52.124;5.422;2022-08-20T01:27:38;101607.16;;;19.02;91.77
71964;BME280;59834;52.124;5.422;2022-08-20T01:30:08;101611.47;;;19.03;91.89
71964;BME280;59834;52.124;5.422;2022-08-20T01:32:35;101612.47;;;19.02;92.09
71964;BME280;59834;52.124;5.422;2022-08-20T01:35:03;101611.31;;;19.04;92.14
71964;BME280;59834;52.124;5.422;2022-08-20T01:37:29;101610.22;;;19.07;92.29
71964;BME280;59834;52.124;5.422;2022-08-20T01:39:57;101605.91;;;19.06;92.05
71964;BME280;59834;52.124;5.422;2022-08-20T01:42:30;101611.47;;;19.03;91.79
71964;BME280;59834;52.124;5.422;2022-08-20T01:45:01;101613.81;;;18.96;90.75
71964;BME280;59834;52.124;5.422;2022-08-20T01:47:31;101616.47;;;18.96;91.36
71964;BME280;59834;52.124;5.422;2022-08-20T01:50:16;101616.31;;;18.98;91.59
71964;BME280;59834;52.124;5.422;2022-08-20T01:52:52;101608.78;;;18.93;90.67
71964;BME280;59834;52.124;5.422;2022-08-20T01:55:22;101618.81;;;18.90;91.06
71964;BME280;59834;52.124;5.422;2022-08-20T01:57:49;101618.81;;;18.90;91.34
71964;BME280;59834;52.124;5.422;2022-08-20T02:00:17;101616.44;;;18.87;91.70
71964;BME280;59834;52.124;5.422;2022-08-20T02:02:45;101622.13;;;18.82;91.75
71964;BME280;59834;52.124;5.422;2022-08-20T02:05:12;101620.00;;;18.76;92.52
71964;BME280;59834;52.124;5.422;2022-08-20T02:07:39;101615.94;;;18.72;92.27
71964;BME280;59834;52.124;5.422;2022-08-20T02:10:09;101613.38;;;18.70;92.27
71964;BME280;59834;52.124;5.422;2022-08-20T02:12:36;101613.63;;;18.67;92.44
71964;BME280;59834;52.124;5.422;2022-08-20T02:15:07;101619.91;;;18.66;92.53
71964;BME280;59834;52.124;5.422;2022-08-20T02:17:36;101609.31;;;18.66;92.36
71964;BME280;59834;52.124;5.422;2022-08-20T02:20:11;101614.47;;;18.68;92.12
71964;BME280;59834;52.124;5.422;2022-08-20T02:22:48;101624.25;;;18.67;91.87
71964;BME280;59834;52.124;5.422;2022-08-20T02:25:17;101626.91;;;18.67;91.93
71964;BME280;59834;52.124;5.422;2022-08-20T02:27:46;101624.97;;;18.69;91.37
71964;BME280;59834;52.124;5.422;2022-08-20T02:30:42;101621.59;;;18.67;91.65
71964;BME280;59834;52.124;5.422;2022-08-20T02:33:11;101620.06;;;18.65;91.77
71964;BME280;59834;52.124;5.422;2022-08-20T02:35:40;101619.19;;;18.64;92.02
71964;BME280;59834;52.124;5.422;2022-08-20T02:38:09;101623.66;;;18.64;92.12
71964;BME280;59834;52.124;5.422;2022-08-20T02:40:36;101630.78;;;18.63;92.28
71964;BME280;59834;52.124;5.422;2022-08-20T02:43:03;101630.06;;;18.61;92.29
71964;BME280;59834;52.124;5.422;2022-08-20T02:45:32;101625.63;;;18.61;91.83
71964;BME280;59834;52.124;5.422;2022-08-20T02:48:02;101625.75;;;18.60;91.44
71964;BME280;59834;52.124;5.422;2022-08-20T02:50:29;101625.75;;;18.60;91.93
71964;BME280;59834;52.124;5.422;2022-08-20T02:52:55;101620.69;;;18.57;91.65
71964;BME280;59834;52.124;5.422;2022-08-20T02:55:23;101618.31;;;18.54;91.86
71964;BME280;59834;52.124;5.422;2022-08-20T02:57:57;101616.19;;;18.48;91.95
71964;BME280;59834;52.124;5.422;2022-08-20T03:00:28;101618.97;;;18.46;92.10
71964;BME280;59834;52.124;5.422;2022-08-20T03:03:04;101617.41;;;18.44;91.99
71964;BME280;59834;52.124;5.422;2022-08-20T03:05:31;101615.72;;;18.43;92.20
71964;BME280;59834;52.124;5.422;2022-08-20T03:07:57;101621.28;;;18.40;91.67
71964;BME280;59834;52.124;5.422;2022-08-20T03:10:32;101622.84;;;18.42;91.80
71964;BME280;59834;52.124;5.422;2022-08-20T03:12:59;101623.81;;;18.41;92.23
71964;BME280;59834;52.124;5.422;2022-08-20T03:15:32;101623.09;;;18.39;91.77
71964;BME280;59834;52.124;5.422;2022-08-20T03:17:59;101624.91;;;18.38;91.94
71964;BME280;59834;52.124;5.422;2022-08-20T03:20:26;101626.59;;;18.40;92.13
71964;BME280;59834;52.124;5.422;2022-08-20T03:22:53;101625.50;;;18.42;91.64
71964;BME280;59834;52.124;5.422;2022-08-20T03:25:20;101630.78;;;18.42;92.38
71964;BME280;59834;52.124;5.422;2022-08-20T03:27:48;101629.13;;;18.41;91.44
71964;BME280;59834;52.124;5.422;2022-08-20T03:30:21;101629.97;;;18.42;91.92
71964;BME280;59834;52.124;5.422;2022-08-20T03:32:48;101628.97;;;18.43;92.28
71964;BME280;59834;52.124;5.422;2022-08-20T03:35:16;101636.22;;;18.41;92.56
71964;BME280;59834;52.124;5.422;2022-08-20T03:37:43;101637.34;;;18.38;92.64
71964;BME280;59834;52.124;5.422;2022-08-20T03:40:17;101641.06;;;18.35;92.28
71964;BME280;59834;52.124;5.422;2022-08-20T03:42:43;101635.06;;;18.33;92.11
71964;BME280;59834;52.124;5.422;2022-08-20T03:45:11;101640.25;;;18.35;92.31
71964;BME280;59834;52.124;5.422;2022-08-20T03:47:42;101639.41;;;18.34;92.00
71964;BME280;59834;52.124;5.422;2022-08-20T03:50:09;101637.69;;;18.33;92.39
71964;BME280;59834;52.124;5.422;2022-08-20T03:52:45;101651.34;;;18.29;92.95
71964;BME280;59834;52.124;5.422;2022-08-20T03:55:12;101649.09;;;18.24;93.10
71964;BME280;59834;52.124;5.422;2022-08-20T03:57:47;101646.94;;;18.18;93.27
71964;BME280;59834;52.124;5.422;2022-08-20T04:00:15;101642.84;;;18.14;92.83
71964;BME280;59834;52.124;5.422;2022-08-20T04:02:46;101640.47;;;18.11;92.62
71964;BME280;59834;52.124;5.422;2022-08-20T04:05:12;101639.84;;;18.07;93.21
71964;BME280;59834;52.124;5.422;2022-08-20T04:07:39;101632.19;;;18.04;93.16
71964;BME280;59834;52.124;5.422;2022-08-20T04:10:08;101636.03;;;18.00;93.30
71964;BME280;59834;52.124;5.422;2022-08-20T04:12:36;101638.09;;;17.97;93.29
71964;BME280;59834;52.124;5.422;2022-08-20T04:15:18;101643.78;;;17.92;93.75
71964;BME280;59834;52.124;5.422;2022-08-20T04:17:48;101646.09;;;17.85;93.58
71964;BME280;59834;52.124;5.422;2022-08-20T04:20:21;101644.66;;;17.81;94.40
71964;BME280;59834;52.124;5.422;2022-08-20T04:22:50;101646.59;;;17.79;94.52
71964;BME280;59834;52.124;5.422;2022-08-20T04:25:25;101648.41;;;17.79;93.97
71964;BME280;59834;52.124;5.422;2022-08-20T04:27:53;101649.22;;;17.79;94.52
71964;BME280;59834;52.124;5.422;2022-08-20T04:30:21;101654.28;;;17.82;94.65
71964;BME280;59834;52.124;5.422;2022-08-20T04:32:48;101661.25;;;17.83;94.45
71964;BME280;59834;52.124;5.422;2022-08-20T04:35:15;101666.31;;;17.86;94.25
71964;BME280;59834;52.124;5.422;2022-08-20T04:37:45;101666.31;;;17.86;93.99
71964;BME280;59834;52.124;5.422;2022-08-20T04:40:17;101665.47;;;17.86;94.02
71964;BME280;59834;52.124;5.422;2022-08-20T04:43:03;101675.22;;;17.85;94.18
71964;BME280;59834;52.124;5.422;2022-08-20T04:45:31;101671.59;;;17.86;94.64
71964;BME280;59834;52.124;5.422;2022-08-20T04:48:02;101676.19;;;17.84;94.12
71964;BME280;59834;52.124;5.422;2022-08-20T04:50:39;101681.34;;;17.86;93.85
71964;BME280;59834;52.124;5.422;2022-08-20T04:53:09;101679.53;;;17.86;94.35
71964;BME280;59834;52.124;5.422;2022-08-20T04:55:37;101691.84;;;17.87;94.06
71964;BME280;59834;52.124;5.422;2022-08-20T04:58:09;101683.91;;;17.87;94.20
71964;BME280;59834;52.124;5.422;2022-08-20T05:00:37;101689.19;;;17.87;94.14
71964;BME280;59834;52.124;5.422;2022-08-20T05:03:04;101689.19;;;17.87;94.16
71964;BME280;59834;52.124;5.422;2022-08-20T05:05:33;101688.31;;;17.87;94.37
71964;BME280;59834;52.124;5.422;2022-08-20T05:08:01;101696.41;;;17.85;94.20
71964;BME280;59834;52.124;5.422;2022-08-20T05:10:28;101694.84;;;17.83;93.58
71964;BME280;59834;52.124;5.422;2022-08-20T05:12:54;101694.25;;;17.79;93.70
71964;BME280;59834;52.124;5.422;2022-08-20T05:15:22;101692.78;;;17.75;93.45
71964;BME280;59834;52.124;5.422;2022-08-20T05:17:54;101693.03;;;17.72;93.69
71964;BME280;59834;52.124;5.422;2022-08-20T05:20:22;101692.28;;;17.70;93.61
71964;BME280;59834;52.124;5.422;2022-08-20T05:22:49;101689.66;;;17.70;93.67
71964;BME280;59834;52.124;5.422;2022-08-20T05:25:16;101688.94;;;17.68;93.53
71964;BME280;59834;52.124;5.422;2022-08-20T05:27:43;101696.16;;;17.66;93.90
71964;BME280;59834;52.124;5.422;2022-08-20T05:30:13;101709.28;;;17.67;93.12
71964;BME280;59834;52.124;5.422;2022-08-20T05:32:40;101710.22;;;17.66;93.30
71964;BME280;59834;52.124;5.422;2022-08-20T05:35:10;101707.81;;;17.63;92.75
71964;BME280;59834;52.124;5.422;2022-08-20T05:37:38;101712.53;;;17.60;93.21
71964;BME280;59834;52.124;5.422;2022-08-20T05:40:11;101715.44;;;17.68;93.30
71964;BME280;59834;52.124;5.422;2022-08-20T05:42:39;101704.47;;;17.84;92.76
71964;BME280;59834;52.124;5.422;2022-08-20T05:45:06;101713.06;;;18.41;90.80
71964;BME280;59834;52.124;5.422;2022-08-20T05:47:38;101715.66;;;18.31;89.52
71964;BME280;59834;52.124;5.422;2022-08-20T05:50:10;101716.78;;;18.17;90.15
71964;BME280;59834;52.124;5.422;2022-08-20T05:52:48;101716.81;;;18.06;90.96
71964;BME280;59834;52.124;5.422;2022-08-20T05:55:15;101719.72;;;18.03;90.97
71964;BME280;59834;52.124;5.422;2022-08-20T05:57:41;101716.47;;;17.99;90.49
71964;BME280;59834;52.124;5.422;2022-08-20T06:00:11;101719.56;;;18.48;90.73
71964;BME280;59834;52.124;5.422;2022-08-20T06:02:39;101719.13;;;20.17;84.16
71964;BME280;59834;52.124;5.422;2022-08-20T06:05:24;101716.75;;;21.29;78.44
71964;BME280;59834;52.124;5.422;2022-08-20T06:07:52;101714.97;;;21.84;75.78
71964;BME280;59834;52.124;5.422;2022-08-20T06:10:21;101719.53;;;22.20;73.93
71964;BME280;59834;52.124;5.422;2022-08-20T06:12:48;101708.53;;;22.58;71.33
71964;BME280;59834;52.124;5.422;2022-08-20T06:15:14;101723.91;;;23.00;69.46
71964;BME280;59834;52.124;5.422;2022-08-20T06:17:41;101725.38;;;23.03;69.17
71964;BME280;59834;52.124;5.422;2022-08-20T06:20:08;101720.44;;;23.08;68.87
71964;BME280;59834;52.124;5.422;2022-08-20T06:22:36;101721.03;;;23.28;67.63
71964;BME280;59834;52.124;5.422;2022-08-20T06:25:05;101717.25;;;22.61;69.84
71964;BME280;59834;52.124;5.422;2022-08-20T06:27:32;101722.44;;;22.88;68.17
71964;BME280;59834;52.124;5.422;2022-08-20T06:30:01;101717.13;;;23.14;67.66
71964;BME280;59834;52.124;5.422;2022-08-20T06:32:27;101720.25;;;23.44;66.71
71964;BME280;59834;52.124;5.422;2022-08-20T06:34:59;101720.59;;;23.41;65.54
71964;BME280;59834;52.124;5.422;2022-08-20T06:37:28;101719.63;;;23.50;66.34
71964;BME280;59834;52.124;5.422;2022-08-20T06:40:00;101719.19;;;23.63;65.37
71964;BME280;59834;52.124;5.422;2022-08-20T06:42:28;101727.88;;;23.65;65.22
71964;BME280;59834;52.124;5.422;2022-08-20T06:44:55;101723.97;;;23.85;63.42
71964;BME280;59834;52.124;5.422;2022-08-20T06:47:21;101719.00;;;23.98;63.12
71964;BME280;59834;52.124;5.422;2022-08-20T06:49:48;101725.22;;;24.15;62.59
71964;BME280;59834;52.124;5.422;2022-08-20T06:52:15;101726.72;;;24.26;62.19
71964;BME280;59834;52.124;5.422;2022-08-20T06:54:43;101733.88;;;24.17;62.57
71964;BME280;59834;52.124;5.422;2022-08-20T06:57:10;101729.59;;;23.05;65.75
71964;BME280;59834;52.124;5.422;2022-08-20T06:59:37;101729.22;;;22.21;67.69
71964;BME280;59834;52.124;5.422;2022-08-20T07:02:03;101729.66;;;21.71;71.73
71964;BME280;59834;52.124;5.422;2022-08-20T07:04:31;101739.00;;;21.47;71.96
71964;BME280;59834;52.124;5.422;2022-08-20T07:06:57;101734.44;;;21.30;72.06
71964;BME280;59834;52.124;5.422;2022-08-20T07:09:25;101740.47;;;21.22;72.30
71964;BME280;59834;52.124;5.422;2022-08-20T07:11:52;101735.75;;;21.16;71.72
71964;BME280;59834;52.124;5.422;2022-08-20T07:14:19;101740.91;;;21.17;69.26
71964;BME280;59834;52.124;5.422;2022-08-20T07:16:46;101735.88;;;21.14;70.21
71964;BME280;59834;52.124;5.422;2022-08-20T07:19:13;101744.13;;;21.11;70.35
71964;BME280;59834;52.124;5.422;2022-08-20T07:21:39;101743.84;;;21.14;69.31
71964;BME280;59834;52.124;5.422;2022-08-20T07:24:06;101744.72;;;20.95;69.32
71964;BME280;59834;52.124;5.422;2022-08-20T07:26:35;101743.06;;;20.94;70.57
71964;BME280;59834;52.124;5.422;2022-08-20T07:29:02;101755.53;;;20.94;69.45
71964;BME280;59834;52.124;5.422;2022-08-20T07:31:28;101758.59;;;20.99;69.81
71964;BME280;59834;52.124;5.422;2022-08-20T07:34:14;101756.06;;;21.07;68.46
71964;BME280;59834;52.124;5.422;2022-08-20T07:36:40;101751.00;;;21.14;69.87
71964;BME280;59834;52.124;5.422;2022-08-20T07:39:06;101756.16;;;21.15;67.22
71964;BME280;59834;52.124;5.422;2022-08-20T07:41:34;101756.88;;;21.17;69.34
71964;BME280;59834;52.124;5.422;2022-08-20T07:44:02;101755.31;;;21.25;66.59
71964;BME280;59834;52.124;5.422;2022-08-20T07:46:38;101752.53;;;21.16;66.30
71964;BME280;59834;52.124;5.422;2022-08-20T07:49:05;101769.34;;;21.17;64.08
71964;BME280;59834;52.124;5.422;2022-08-20T07:51:35;101760.66;;;21.15;65.10
71964;BME280;59834;52.124;5.422;2022-08-20T07:54:02;101765.13;;;21.24;66.08
71964;BME280;59834;52.124;5.422;2022-08-20T07:56:31;101766.97;;;21.24;64.50
71964;BME280;59834;52.124;5.422;2022-08-20T07:58:58;101769.47;;;21.25;62.96
71964;BME280;59834;52.124;5.422;2022-08-20T08:01:29;101763.44;;;21.33;63.17
71964;BME280;59834;52.124;5.422;2022-08-20T08:03:57;101762.31;;;21.35;64.32
71964;BME280;59834;52.124;5.422;2022-08-20T08:06:26;101773.66;;;21.37;64.08
71964;BME280;59834;52.124;5.422;2022-08-20T08:08:58;101776.88;;;21.41;64.93
71964;BME280;59834;52.124;5.422;2022-08-20T08:11:27;101778.56;;;21.42;61.45
71964;BME280;59834;52.124;5.422;2022-08-20T08:13:53;101773.47;;;21.49;63.80
71964;BME280;59834;52.124;5.422;2022-08-20T08:16:20;101781.34;;;21.50;61.11
71964;BME280;59834;52.124;5.422;2022-08-20T08:18:49;101775.03;;;21.51;60.68
71964;BME280;59834;52.124;5.422;2022-08-20T08:21:18;101774.28;;;21.59;62.22
71964;BME280;59834;52.124;5.422;2022-08-20T08:23:47;101777.50;;;21.62;63.11
71964;BME280;59834;52.124;5.422;2022-08-20T08:26:15;101775.94;;;21.70;63.24
71964;BME280;59834;52.124;5.422;2022-08-20T08:28:45;101771.31;;;21.89;63.62
71964;BME280;59834;52.124;5.422;2022-08-20T08:31:12;101786.47;;;21.89;61.42
71964;BME280;59834;52.124;5.422;2022-08-20T08:33:40;101778.09;;;21.84;59.07
71964;BME280;59834;52.124;5.422;2022-08-20T08:36:10;101786.88;;;21.94;60.81
71964;BME280;59834;52.124;5.422;2022-08-20T08:38:38;101783.88;;;22.07;61.54
71964;BME280;59834;52.124;5.422;2022-08-20T08:41:18;101783.00;;;22.06;59.14
71964;BME280;59834;52.124;5.422;2022-08-20T08:43:48;101784.25;;;22.12;59.44
71964;BME280;59834;52.124;5.422;2022-08-20T08:46:18;101786.59;;;22.25;60.26
71964;BME280;59834;52.124;5.422;2022-08-20T08:48:48;101787.59;;;22.24;59.25
71964;BME280;59834;52.124;5.422;2022-08-20T08:51:25;101791.03;;;22.34;59.22
71964;BME280;59834;52.124;5.422;2022-08-20T08:53:53;101785.53;;;22.35;57.81
71964;BME280;59834;52.124;5.422;2022-08-20T08:56:29;101783.47;;;22.29;58.07
71964;BME280;59834;52.124;5.422;2022-08-20T08:59:06;101789.44;;;22.23;57.40
71964;BME280;59834;52.124;5.422;2022-08-20T09:01:39;101796.59;;;22.13;58.36
71964;BME280;59834;52.124;5.422;2022-08-20T09:04:25;101801.78;;;22.15;58.18
71964;BME280;59834;52.124;5.422;2022-08-20T09:06:53;101803.66;;;22.32;57.46
71964;BME280;59834;52.124;5.422;2022-08-20T09:09:30;101801.94;;;22.41;58.57
71964;BME280;59834;52.124;5.422;2022-08-20T09:12:06;101795.13;;;22.46;58.37
71964;BME280;59834;52.124;5.422;2022-08-20T09:14:33;101790.78;;;22.63;57.37
71964;BME280;59834;52.124;5.422;2022-08-20T09:17:01;101796.13;;;22.63;54.61
71964;BME280;59834;52.124;5.422;2022-08-20T09:19:27;101798.31;;;22.50;54.18
71964;BME280;59834;52.124;5.422;2022-08-20T09:21:55;101803.84;;;22.48;54.17
71964;BME280;59834;52.124;5.422;2022-08-20T09:24:22;101809.16;;;22.48;54.43
71964;BME280;59834;52.124;5.422;2022-08-20T09:26:49;101803.84;;;22.48;52.95
71964;BME280;59834;52.124;5.422;2022-08-20T09:29:16;101803.69;;;22.68;54.51
71964;BME280;59834;52.124;5.422;2022-08-20T09:31:43;101798.03;;;22.71;52.41
71964;BME280;59834;52.124;5.422;2022-08-20T09:34:10;101795.50;;;22.69;54.17
71964;BME280;59834;52.124;5.422;2022-08-20T09:36:36;101801.31;;;22.65;53.03
71964;BME280;59834;52.124;5.422;2022-08-20T09:39:03;101797.22;;;22.70;52.08
71964;BME280;59834;52.124;5.422;2022-08-20T09:41:30;101793.00;;;22.68;50.52
71964;BME280;59834;52.124;5.422;2022-08-20T09:43:59;101793.63;;;22.62;50.15
71964;BME280;59834;52.124;5.422;2022-08-20T09:46:26;101800.72;;;22.71;49.45
71964;BME280;59834;52.124;5.422;2022-08-20T09:48:53;101797.09;;;22.80;50.24
71964;BME280;59834;52.124;5.422;2022-08-20T09:51:20;101794.22;;;22.91;50.78
71964;BME280;59834;52.124;5.422;2022-08-20T09:53:47;101804.59;;;22.94;49.68
71964;BME280;59834;52.124;5.422;2022-08-20T09:56:14;101798.44;;;22.94;45.50
71964;BME280;59834;52.124;5.422;2022-08-20T09:58:48;101790.53;;;22.92;47.40
71964;BME280;59834;52.124;5.422;2022-08-20T10:01:17;101792.63;;;22.98;47.75
71964;BME280;59834;52.124;5.422;2022-08-20T10:03:45;101791.63;;;22.99;46.96
71964;BME280;59834;52.124;5.422;2022-08-20T10:06:16;101791.47;;;23.01;47.23
71964;BME280;59834;52.124;5.422;2022-08-20T10:08:45;101793.72;;;23.14;46.36
71964;BME280;59834;52.124;5.422;2022-08-20T10:11:12;101794.56;;;23.14;45.15
71964;BME280;59834;52.124;5.422;2022-08-20T10:13:39;101797.59;;;23.19;46.18
71964;BME280;59834;52.124;5.422;2022-08-20T10:16:06;101800.84;;;23.05;44.53
71964;BME280;59834;52.124;5.422;2022-08-20T10:18:33;101793.34;;;23.09;44.66
71964;BME280;59834;52.124;5.422;2022-08-20T10:21:00;101790.94;;;23.23;44.98
71964;BME280;59834;52.124;5.422;2022-08-20T10:23:27;101785.19;;;23.36;45.73
71964;BME280;59834;52.124;5.422;2022-08-20T10:25:54;101788.06;;;23.43;44.20
71964;BME280;59834;52.124;5.422;2022-08-20T10:28:20;101789.94;;;23.50;43.61
71964;BME280;59834;52.124;5.422;2022-08-20T10:30:47;101799.25;;;23.46;44.84
71964;BME280;59834;52.124;5.422;2022-08-20T10:33:14;101804.09;;;23.43;44.72
71964;BME280;59834;52.124;5.422;2022-08-20T10:35:40;101800.09;;;23.47;43.63
71964;BME280;59834;52.124;5.422;2022-08-20T10:38:07;101794.72;;;23.39;44.35
71964;BME280;59834;52.124;5.422;2022-08-20T10:40:33;101795.63;;;23.47;43.68
71964;BME280;59834;52.124;5.422;2022-08-20T10:43:01;101798.00;;;23.59;43.37
71964;BME280;59834;52.124;5.422;2022-08-20T10:45:29;101797.38;;;23.65;44.21
71964;BME280;59834;52.124;5.422;2022-08-20T10:47:59;101796.78;;;23.71;44.30
71964;BME280;59834;52.124;5.422;2022-08-20T10:50:26;101800.69;;;23.59;44.22
71964;BME280;59834;52.124;5.422;2022-08-20T10:52:56;101795.25;;;23.16;44.93
71964;BME280;59834;52.124;5.422;2022-08-20T10:55:23;101799.13;;;23.22;46.54
71964;BME280;59834;52.124;5.422;2022-08-20T10:57:49;101803.09;;;23.44;45.49
71964;BME280;59834;52.124;5.422;2022-08-20T11:00:17;101796.00;;;23.61;44.31
71964;BME280;59834;52.124;5.422;2022-08-20T11:02:44;101796.47;;;23.56;45.25
71964;BME280;59834;52.124;5.422;2022-08-20T11:05:10;101791.25;;;23.20;44.85
71964;BME280;59834;52.124;5.422;2022-08-20T11:07:40;101789.47;;;23.55;44.72
71964;BME280;59834;52.124;5.422;2022-08-20T11:10:27;101793.03;;;23.98;42.87
71964;BME280;59834;52.124;5.422;2022-08-20T11:12:55;101795.84;;;23.88;43.30
71964;BME280;59834;52.124;5.422;2022-08-20T11:15:22;101796.84;;;23.61;44.00
71964;BME280;59834;52.124;5.422;2022-08-20T11:17:48;101794.09;;;23.71;43.66
71964;BME280;59834;52.124;5.422;2022-08-20T11:20:17;101796.06;;;23.69;43.60
71964;BME280;59834;52.124;5.422;2022-08-20T11:22:44;101803.16;;;23.52;45.25
71964;BME280;59834;52.124;5.422;2022-08-20T11:25:11;101792.25;;;23.45;45.50
71964;BME280;59834;52.124;5.422;2022-08-20T11:27:41;101796.16;;;23.25;46.56
71964;BME280;59834;52.124;5.422;2022-08-20T11:30:10;101805.91;;;23.16;46.69
71964;BME280;59834;52.124;5.422;2022-08-20T11:32:37;101800.16;;;23.03;46.84
71964;BME280;59834;52.124;5.422;2022-08-20T11:35:05;101794.16;;;23.01;46.57
71964;BME280;59834;52.124;5.422;2022-08-20T11:37:53;101802.44;;;23.68;44.97
71964;BME280;59834;52.124;5.422;2022-08-20T11:40:21;101798.38;;;23.98;43.39
71964;BME280;59834;52.124;5.422;2022-08-20T11:42:48;101798.25;;;24.24;40.90
71964;BME280;59834;52.124;5.422;2022-08-20T11:45:35;101792.91;;;24.16;41.35
71964;BME280;59834;52.124;5.422;2022-08-20T11:48:03;101805.38;;;23.99;43.73
71964;BME280;59834;52.124;5.422;2022-08-20T11:50:29;101793.50;;;23.93;43.01
71964;BME280;59834;52.124;5.422;2022-08-20T11:52:56;101802.44;;;23.68;43.45
71964;BME280;59834;52.124;5.422;2022-08-20T11:55:24;101801.50;;;23.59;44.20
71964;BME280;59834;52.124;5.422;2022-08-20T11:57:56;101799.66;;;23.60;42.50
71964;BME280;59834;52.124;5.422;2022-08-20T12:00:27;101799.91;;;23.40;44.17
71964;BME280;59834;52.124;5.422;2022-08-20T12:03:00;101797.50;;;23.29;44.81
71964;BME280;59834;52.124;5.422;2022-08-20T12:05:27;101798.34;;;23.29;45.36
71964;BME280;59834;52.124;5.422;2022-08-20T12:07:56;101793.91;;;23.46;44.51
71964;BME280;59834;52.124;5.422;2022-08-20T12:10:23;101796.78;;;23.53;44.61
71964;BME280;59834;52.124;5.422;2022-08-20T12:12:51;101794.63;;;23.48;45.71
71964;BME280;59834;52.124;5.422;2022-08-20T12:15:18;101797.44;;;23.47;45.13
71964;BME280;59834;52.124;5.422;2022-08-20T12:17:45;101796.28;;;23.49;44.44
71964;BME280;59834;52.124;5.422;2022-08-20T12:20:12;101791.56;;;23.43;45.47
71964;BME280;59834;52.124;5.422;2022-08-20T12:22:39;101792.06;;;23.39;43.84
71964;BME280;59834;52.124;5.422;2022-08-20T12:25:07;101785.09;;;23.80;44.42
71964;BME280;59834;52.124;5.422;2022-08-20T12:27:35;101784.91;;;24.32;43.52
71964;BME280;59834;52.124;5.422;2022-08-20T12:30:08;101790.06;;;24.17;43.87
71964;BME280;59834;52.124;5.422;2022-08-20T12:32:35;101783.75;;;23.84;43.19
71964;BME280;59834;52.124;5.422;2022-08-20T12:35:03;101787.75;;;23.80;43.90
71964;BME280;59834;52.124;5.422;2022-08-20T12:37:30;101789.09;;;23.84;44.61
71964;BME280;59834;52.124;5.422;2022-08-20T12:39:59;101789.25;;;24.25;44.63
71964;BME280;59834;52.124;5.422;2022-08-20T12:42:27;101785.50;;;24.68;42.11
71964;BME280;59834;52.124;5.422;2022-08-20T12:44:56;101790.00;;;24.76;42.20
71964;BME280;59834;52.124;5.422;2022-08-20T12:47:27;101781.63;;;24.63;42.34
71964;BME280;59834;52.124;5.422;2022-08-20T12:49:56;101787.66;;;24.49;43.61
71964;BME280;59834;52.124;5.422;2022-08-20T12:52:24;101787.22;;;24.27;42.64
71964;BME280;59834;52.124;5.422;2022-08-20T12:54:51;101777.28;;;24.45;43.52
71964;BME280;59834;52.124;5.422;2022-08-20T12:57:27;101780.47;;;24.49;44.43
71964;BME280;59834;52.124;5.422;2022-08-20T12:59:56;101780.91;;;24.36;43.77
71964;BME280;59834;52.124;5.422;2022-08-20T13:02:24;101779.53;;;24.24;44.08